Time;durP1;ratioP1;P1;durP2;ratioP2;P2;SDS_P1;SDS_P2;PMS_P1;PMS_P2;Temp;Humidity;BMP_temperature;BMP_pressure;BME280_temperature;BME280_humidity;BME280_pressure;Samples;Min_cycle;Max_cycle;Signal;HPM_P1;HPM_P2
2022/05/30 00:00:27;;;;;;;14.63;2.50;;;20.10;99.90;;;;;;5071376;28;20027;-77
2022/05/30 00:02:53;;;;;;;11.77;2.20;;;20.20;99.90;;;;;;5072633;28;20424;-77
2022/05/30 00:05:23;;;;;;;14.05;2.60;;;20.20;99.90;;;;;;5072230;28;20020;-77
2022/05/30 00:07:49;;;;;;;13.40;2.13;;;20.20;99.90;;;;;;5072165;28;20036;-76
2022/05/30 00:10:17;;;;;;;20.63;3.00;;;20.10;99.90;;;;;;5071893;28;20048;-77
2022/05/30 00:12:44;;;;;;;18.63;2.42;;;20.20;99.90;;;;;;5071669;28;20040;-77
2022/05/30 00:15:13;;;;;;;14.98;2.55;;;20.10;99.90;;;;;;5071624;28;20021;-77
2022/05/30 00:17:40;;;;;;;12.65;2.17;;;20.10;99.90;;;;;;5071702;28;20103;-77
2022/05/30 00:20:07;;;;;;;14.20;2.83;;;20.10;99.90;;;;;;5072095;28;20510;-77
2022/05/30 00:22:33;;;;;;;10.18;2.50;;;20.10;99.90;;;;;;5071700;28;20229;-76
2022/05/30 00:24:59;;;;;;;13.88;2.67;;;20.10;99.90;;;;;;5071615;28;20055;-77
2022/05/30 00:27:25;;;;;;;11.70;2.85;;;20.00;99.90;;;;;;5071807;28;20397;-77
2022/05/30 00:29:51;;;;;;;10.23;2.33;;;20.00;99.90;;;;;;5053588;28;20043;-76
2022/05/30 00:32:18;;;;;;;15.20;2.90;;;20.00;99.90;;;;;;5071453;28;20036;-77
2022/05/30 00:34:44;;;;;;;12.45;2.55;;;19.90;99.90;;;;;;5071376;28;20028;-77
2022/05/30 00:37:10;;;;;;;10.80;2.35;;;19.90;99.90;;;;;;5071075;28;20036;-77
2022/05/30 00:39:36;;;;;;;9.82;2.30;;;19.90;99.90;;;;;;5052240;28;20464;-77
2022/05/30 00:42:14;;;;;;;10.85;2.42;;;19.90;99.90;;;;;;5069103;28;20067;-77
2022/05/30 00:44:42;;;;;;;12.88;2.20;;;19.90;99.90;;;;;;5067965;28;20453;-77
2022/05/30 00:47:08;;;;;;;9.35;2.30;;;19.90;99.90;;;;;;5070007;28;20027;-77
2022/05/30 00:49:37;;;;;;;13.98;2.53;;;19.90;99.90;;;;;;5070582;28;20032;-77
2022/05/30 00:52:07;;;;;;;10.98;2.30;;;19.90;99.90;;;;;;5053066;28;20020;-77
2022/05/30 00:54:43;;;;;;;12.02;2.60;;;19.90;99.90;;;;;;5071448;28;20037;-77
2022/05/30 00:57:21;;;;;;;;;;;19.80;99.90;;;;;;5071845;28;20074;-77
2022/05/30 00:59:57;;;;;;;7.00;2.10;;;19.90;99.90;;;;;;5071309;28;19935;-77
2022/05/30 01:02:25;;;;;;;;;;;19.80;99.90;;;;;;5071363;28;20052;-77
2022/05/30 01:07:38;;;;;;;7.63;2.25;;;19.80;99.90;;;;;;5071229;28;20039;-77
2022/05/30 01:10:14;;;;;;;9.93;2.00;;;19.80;99.90;;;;;;5071033;28;20024;-77
2022/05/30 01:12:43;;;;;;;11.85;2.42;;;19.80;99.90;;;;;;5071075;28;20044;-77
2022/05/30 01:15:13;;;;;;;10.07;2.38;;;19.90;99.90;;;;;;5071420;28;20130;-77
2022/05/30 01:18:02;;;;;;;12.18;3.28;;;19.90;99.90;;;;;;5070999;28;20463;-77
2022/05/30 01:20:46;;;;;;;13.07;2.22;;;19.90;99.90;;;;;;5071087;28;20033;-77
2022/05/30 01:23:15;;;;;;;10.98;2.78;;;19.90;99.90;;;;;;5073232;28;20361;-77
2022/05/30 01:26:15;;;;;;;13.73;2.80;;;19.90;99.90;;;;;;5075330;28;20107;-77
2022/05/30 01:29:00;;;;;;;12.18;2.10;;;19.80;99.90;;;;;;5075368;28;20028;-76
2022/05/30 01:31:26;;;;;;;10.02;2.40;;;19.70;99.90;;;;;;5074989;28;20024;-77
2022/05/30 01:33:52;;;;;;;9.13;2.10;;;19.70;99.90;;;;;;5074959;28;20119;-77
2022/05/30 01:36:24;;;;;;;11.60;2.35;;;19.60;99.90;;;;;;5074955;28;20173;-77
2022/05/30 01:38:51;;;;;;;8.77;2.00;;;19.70;99.90;;;;;;5075287;28;20028;-75
2022/05/30 01:41:17;;;;;;;8.32;1.70;;;19.70;99.90;;;;;;5074925;28;20025;-77
2022/05/30 01:43:45;;;;;;;12.75;2.20;;;19.80;99.90;;;;;;5075038;28;20082;-77
2022/05/30 01:46:15;;;;;;;12.52;2.00;;;19.80;99.90;;;;;;5074858;28;20036;-77
2022/05/30 01:48:43;;;;;;;11.93;2.15;;;19.90;99.90;;;;;;5075169;28;20021;-77
2022/05/30 01:51:09;;;;;;;10.18;2.08;;;19.90;99.90;;;;;;5074891;28;20032;-77
2022/05/30 01:53:35;;;;;;;9.48;2.45;;;19.90;99.90;;;;;;5074707;28;20465;-77
2022/05/30 01:56:02;;;;;;;8.77;1.90;;;20.00;99.90;;;;;;5056472;28;20380;-76
2022/05/30 01:58:28;;;;;;;9.25;1.80;;;20.10;99.90;;;;;;5074616;28;20085;-77
2022/05/30 02:00:54;;;;;;;9.75;1.95;;;20.00;99.90;;;;;;5056162;28;20046;-77
2022/05/30 02:03:20;;;;;;;9.23;1.77;;;20.10;99.90;;;;;;5074360;28;20060;-76
2022/05/30 02:05:46;;;;;;;13.43;2.77;;;20.20;99.90;;;;;;5074687;28;20024;-77
2022/05/30 02:08:16;;;;;;;9.20;2.00;;;20.20;99.90;;;;;;5074238;28;20282;-77
2022/05/30 02:10:43;;;;;;;7.95;1.83;;;20.30;99.90;;;;;;5074629;28;20092;-76
2022/05/30 02:13:09;;;;;;;7.35;1.40;;;20.20;99.90;;;;;;5055795;28;20040;-77
2022/05/30 02:17:00;;;;;;;8.02;1.65;;;20.30;99.90;;;;;;5074113;28;20024;-76
2022/05/30 02:18:21;;;;;;;6.13;1.65;;;20.40;99.90;;;;;;5073941;28;20132;-76
2022/05/30 02:20:48;;;;;;;4.80;1.30;;;20.70;99.90;;;;;;5074331;28;20120;-76
2022/05/30 02:23:16;;;;;;;8.23;1.58;;;20.90;99.90;;;;;;5055770;28;20036;-77
2022/05/30 02:25:43;;;;;;;7.05;1.40;;;21.10;99.90;;;;;;5074075;28;20024;-76
2022/05/30 02:28:09;;;;;;;6.93;1.25;;;21.10;99.90;;;;;;5074375;28;20114;-75
2022/05/30 02:30:35;;;;;;;8.18;1.70;;;21.30;99.70;;;;;;5074245;28;20035;-76
2022/05/30 02:38:30;;;;;;;7.45;1.52;;;21.40;99.00;;;;;;5073677;28;20078;-76
2022/05/30 02:40:56;;;;;;;7.05;1.70;;;21.40;98.80;;;;;;5073797;28;20456;-77
2022/05/30 02:43:22;;;;;;;8.45;1.70;;;21.40;98.50;;;;;;5055429;28;20425;-76
2022/05/30 02:45:48;;;;;;;9.82;1.95;;;21.40;97.70;;;;;;5074007;28;20017;-77
2022/05/30 02:48:14;;;;;;;8.40;1.50;;;21.50;98.40;;;;;;5073475;28;20028;-77
2022/05/30 02:50:40;;;;;;;7.20;1.77;;;21.50;98.30;;;;;;5073447;28;20021;-76
2022/05/30 02:53:06;;;;;;;7.78;1.70;;;21.50;97.30;;;;;;5055409;28;20119;-77
2022/05/30 02:55:32;;;;;;;4.82;1.35;;;21.60;97.10;;;;;;5073379;28;20021;-77
2022/05/30 02:57:59;;;;;;;9.75;1.70;;;21.60;97.00;;;;;;5073699;28;20028;-76
2022/05/30 03:00:26;;;;;;;7.45;1.45;;;21.60;97.30;;;;;;5073152;28;20132;-76
2022/05/30 03:02:52;;;;;;;6.13;1.88;;;21.60;97.40;;;;;;5073694;28;20452;-77
2022/05/30 03:05:19;;;;;;;10.82;1.70;;;21.60;97.10;;;;;;5073083;28;20029;-76
2022/05/30 03:07:45;;;;;;;7.60;1.83;;;21.50;96.90;;;;;;5073007;28;20330;-76
2022/05/30 03:10:11;;;;;;;12.68;2.13;;;21.60;96.40;;;;;;5073381;28;20075;-76
2022/05/30 03:12:37;;;;;;;10.35;1.55;;;21.60;96.00;;;;;;5073162;28;20025;-76
2022/05/30 03:15:04;;;;;;;6.75;1.63;;;21.70;95.90;;;;;;5073261;28;20028;-76
2022/05/30 03:17:30;;;;;;;8.25;1.50;;;21.60;96.20;;;;;;5073425;28;20409;-76
2022/05/30 03:19:56;;;;;;;9.30;1.95;;;21.70;96.10;;;;;;5073078;28;20512;-76
2022/05/30 03:22:23;;;;;;;9.40;1.83;;;21.70;96.20;;;;;;5073383;28;20103;-75
2022/05/30 03:24:49;;;;;;;7.18;1.77;;;21.70;96.00;;;;;;5073322;28;20376;-75
2022/05/30 03:27:15;;;;;;;16.65;1.52;;;21.60;95.80;;;;;;5072927;28;20025;-75
2022/05/30 03:29:41;;;;;;;9.48;1.88;;;21.60;95.80;;;;;;5073172;28;20059;-75
2022/05/30 03:32:09;;;;;;;7.88;1.67;;;21.60;95.60;;;;;;5072701;28;20040;-77
2022/05/30 03:34:35;;;;;;;7.75;1.55;;;21.70;95.70;;;;;;5073369;28;20021;-76
2022/05/30 03:37:01;;;;;;;10.13;1.60;;;21.60;95.70;;;;;;5072805;28;20027;-77
2022/05/30 03:39:27;;;;;;;10.02;1.75;;;21.60;95.30;;;;;;5073331;28;20048;-76
2022/05/30 03:41:53;;;;;;;8.40;1.40;;;21.60;95.00;;;;;;5073375;28;20033;-77
2022/05/30 03:44:19;;;;;;;7.45;1.67;;;21.70;95.00;;;;;;5054994;28;20367;-77
2022/05/30 03:46:45;;;;;;;6.55;1.65;;;21.70;95.10;;;;;;5054121;28;20108;-77
2022/05/30 03:49:11;;;;;;;17.40;2.35;;;21.70;95.30;;;;;;5072771;28;20095;-77
2022/05/30 03:51:46;;;;;;;9.88;2.03;;;21.70;95.00;;;;;;5073104;28;20024;-77
2022/05/30 03:54:12;;;;;;;6.13;1.58;;;21.70;95.00;;;;;;5072573;28;20067;-76
2022/05/30 03:56:38;;;;;;;6.60;1.85;;;21.70;95.00;;;;;;5072262;28;20449;-78
2022/05/30 03:59:05;;;;;;;7.57;1.48;;;21.70;95.00;;;;;;5072103;28;20048;-77
2022/05/30 04:01:31;;;;;;;;;;;21.70;94.90;;;;;;5071245;28;20049;-76
2022/05/30 04:03:58;;;;;;;8.88;2.30;;;21.70;94.80;;;;;;5071652;28;19960;-77
2022/05/30 04:06:23;;;;;;;;;;;21.80;95.10;;;;;;5072299;28;20021;-78
2022/05/30 04:08:49;;;;;;;8.75;2.63;;;21.80;94.70;;;;;;5071079;28;20556;-76
2022/05/30 04:11:16;;;;;;;11.73;3.10;;;21.90;94.70;;;;;;5068544;28;20024;-77
2022/05/30 04:13:42;;;;;;;12.20;3.28;;;21.90;94.70;;;;;;5068752;28;20051;-78
2022/05/30 04:16:13;;;;;;;;;;;21.90;94.60;;;;;;5071897;28;20028;-77
2022/05/30 04:18:40;;;;;;;7.30;1.90;;;22.00;94.50;;;;;;5053937;28;19919;-79
2022/05/30 04:21:20;;;;;;;7.03;2.40;;;22.10;94.30;;;;;;5071872;28;20025;-76
2022/05/30 04:23:47;;;;;;;11.02;2.00;;;22.20;94.00;;;;;;5071101;28;20032;-77
2022/05/30 04:26:16;;;;;;;10.60;1.92;;;22.30;93.80;;;;;;5071015;28;20424;-73
2022/05/30 04:28:43;;;;;;;6.88;1.70;;;22.30;93.70;;;;;;5072159;28;20428;-75
2022/05/30 04:31:13;;;;;;;8.75;1.95;;;22.40;93.60;;;;;;5072024;28;20019;-77
2022/05/30 04:33:40;;;;;;;8.60;1.48;;;22.50;93.70;;;;;;5072571;28;20036;-76
2022/05/30 04:36:09;;;;;;;6.60;1.70;;;22.50;93.60;;;;;;5054783;28;20025;-77
2022/05/30 04:38:35;;;;;;;9.30;1.60;;;22.60;93.40;;;;;;5054629;28;20040;-77
2022/05/30 04:41:01;;;;;;;7.95;1.50;;;22.60;93.40;;;;;;5072708;28;20100;-76
2022/05/30 04:43:27;;;;;;;7.15;1.63;;;22.60;93.30;;;;;;5072883;28;20431;-76
2022/05/30 04:46:03;;;;;;;5.05;1.48;;;22.80;93.20;;;;;;5072684;28;20028;-77
2022/05/30 04:48:30;;;;;;;6.95;1.45;;;22.80;92.90;;;;;;5073144;28;20033;-76
2022/05/30 04:50:56;;;;;;;9.13;1.23;;;22.90;92.70;;;;;;5072689;28;20103;-77
2022/05/30 04:53:22;;;;;;;5.10;1.20;;;23.00;92.60;;;;;;5072890;28;20114;-76
2022/05/30 04:55:48;;;;;;;5.90;1.40;;;23.00;92.40;;;;;;5072750;28;20089;-77
2022/05/30 04:58:14;;;;;;;6.72;1.50;;;23.10;92.20;;;;;;5071702;28;20025;-76
2022/05/30 05:00:40;;;;;;;5.72;1.40;;;23.30;92.10;;;;;;5072117;28;20036;-75
2022/05/30 05:03:06;;;;;;;8.95;1.70;;;23.60;91.90;;;;;;5072748;28;20035;-76
2022/05/30 05:05:32;;;;;;;7.72;1.63;;;23.90;91.80;;;;;;5072693;28;20024;-76
2022/05/30 05:08:16;;;;;;;10.80;1.80;;;24.20;91.60;;;;;;5072249;28;20025;-72
2022/05/30 05:10:58;;;;;;;6.38;1.73;;;24.40;91.80;;;;;;5073492;28;20017;-75
2022/05/30 05:13:24;;;;;;;7.95;1.88;;;25.00;91.30;;;;;;5073279;28;20071;-76
2022/05/30 05:15:55;;;;;;;4.55;1.50;;;25.90;90.20;;;;;;5072340;28;20032;-76
2022/05/30 05:18:22;;;;;;;10.45;1.73;;;26.60;88.50;;;;;;5073150;28;20029;-76
2022/05/30 05:20:48;;;;;;;10.60;1.83;;;26.70;87.10;;;;;;5055175;28;20481;-76
2022/05/30 05:23:14;;;;;;;10.65;1.77;;;27.30;85.40;;;;;;5073092;28;20036;-76
2022/05/30 05:25:41;;;;;;;11.07;2.60;;;27.60;84.40;;;;;;5055144;28;20024;-76
2022/05/30 05:28:08;;;;;;;7.50;1.75;;;27.90;83.20;;;;;;5073188;28;20048;-76
2022/05/30 05:30:34;;;;;;;8.38;1.60;;;28.50;82.30;;;;;;5073306;28;20020;-76
2022/05/30 05:33:01;;;;;;;11.18;1.95;;;29.00;80.70;;;;;;5072301;28;20369;-75
2022/05/30 05:35:26;;;;;;;;;;;29.70;77.80;;;;;;5072193;28;20016;-73
2022/05/30 05:37:52;;;;;;;8.82;1.50;;;30.90;75.50;;;;;;5071156;28;19905;-76
2022/05/30 05:40:19;;;;;;;11.48;2.10;;;31.90;72.30;;;;;;5071932;28;20033;-77
2022/05/30 05:42:45;;;;;;;8.02;1.80;;;31.60;71.80;;;;;;5054153;28;20025;-75
2022/05/30 05:45:11;;;;;;;11.10;1.88;;;31.80;70.60;;;;;;5072169;28;20116;-75
2022/05/30 05:47:37;;;;;;;7.72;1.60;;;31.60;71.00;;;;;;5071824;28;20012;-76
2022/05/30 05:50:17;;;;;;;;;;;31.10;70.80;;;;;;5071922;28;20031;-76
2022/05/30 05:52:43;;;;;;;8.25;1.75;;;30.60;71.90;;;;;;5071205;28;20352;-76
2022/05/30 05:55:09;;;;;;;;;;;31.30;70.10;;;;;;5052953;28;20040;-76
2022/05/30 05:57:35;;;;;;;6.53;1.92;;;31.80;69.00;;;;;;5070424;28;19904;-77
2022/05/30 06:00:04;;;;;;;13.55;1.90;;;32.20;68.30;;;;;;5070624;28;20465;-77
2022/05/30 06:02:32;;;;;;;5.88;1.45;;;32.20;67.80;;;;;;5052463;28;20109;-76
2022/05/30 06:05:26;;;;;;;6.75;1.63;;;33.10;66.80;;;;;;5070339;28;20036;-77
2022/05/30 06:07:53;;;;;;;13.13;2.00;;;34.30;64.40;;;;;;5052393;28;20086;-78
2022/05/30 06:10:25;;;;;;;11.00;2.05;;;34.20;63.30;;;;;;5077011;28;20034;-78
2022/05/30 06:12:52;;;;;;;7.22;1.83;;;35.50;62.80;;;;;;5074180;28;20036;-78
2022/05/30 06:15:19;;;;;;;14.10;1.80;;;37.60;59.80;;;;;;5074305;28;20033;-77
2022/05/30 06:17:46;;;;;;;9.07;2.00;;;39.20;57.20;;;;;;5074760;28;20123;-78
2022/05/30 06:20:15;;;;;;;10.48;1.90;;;40.40;53.90;;;;;;5074975;28;20039;-77
2022/05/30 06:22:41;;;;;;;10.30;1.88;;;41.80;52.40;;;;;;5075760;28;20016;-78
2022/05/30 06:25:08;;;;;;;7.38;1.60;;;42.90;50.40;;;;;;5075492;28;20536;-77
2022/05/30 06:27:35;;;;;;;5.47;1.63;;;43.80;49.20;;;;;;5075027;28;20024;-76
2022/05/30 06:30:02;;;;;;;8.73;1.92;;;44.30;47.00;;;;;;5057007;28;20028;-76
2022/05/30 06:32:28;;;;;;;13.70;2.13;;;45.00;45.90;;;;;;5074989;28;20138;-76
2022/05/30 06:34:55;;;;;;;11.32;2.25;;;45.60;43.90;;;;;;5075365;28;20029;-76
2022/05/30 06:37:23;;;;;;;8.68;1.60;;;45.40;43.30;;;;;;5075531;28;20039;-76
2022/05/30 06:39:52;;;;;;;7.80;2.15;;;46.00;43.70;;;;;;5075752;28;20367;-76
2022/05/30 06:42:24;;;;;;;9.80;1.88;;;45.60;45.90;;;;;;5075056;28;20480;-77
2022/05/30 06:44:51;;;;;;;10.25;1.60;;;46.10;45.90;;;;;;5074887;28;20017;-76
2022/05/30 06:47:17;;;;;;;12.73;1.77;;;46.20;44.20;;;;;;5074649;28;20060;-76
2022/05/30 06:49:43;;;;;;;9.45;1.40;;;45.90;42.30;;;;;;5074800;28;20071;-75
2022/05/30 06:52:12;;;;;;;7.32;1.58;;;45.20;41.70;;;;;;5075011;28;20368;-76
2022/05/30 06:54:39;;;;;;;9.88;1.63;;;44.40;41.70;;;;;;5074888;28;20035;-76
2022/05/30 06:59:50;;;;;;;7.70;1.50;;;44.50;42.60;;;;;;5074680;28;20141;-75
2022/05/30 07:02:16;;;;;;;7.22;1.48;;;44.30;42.50;;;;;;5074156;28;20036;-76
2022/05/30 07:04:42;;;;;;;6.38;1.38;;;43.80;43.70;;;;;;5074621;28;20107;-77
2022/05/30 07:07:08;;;;;;;4.90;1.27;;;43.60;43.50;;;;;;5075320;28;20050;-77
2022/05/30 07:09:47;;;;;;;5.93;1.35;;;44.00;43.80;;;;;;5074208;28;20556;-77
2022/05/30 07:12:13;;;;;;;6.97;1.50;;;43.60;44.40;;;;;;5073072;28;20082;-76
2022/05/30 07:14:39;;;;;;;7.93;1.50;;;42.70;43.90;;;;;;5074444;28;20028;-73
2022/05/30 07:17:10;;;;;;;8.85;1.48;;;42.00;44.40;;;;;;5073570;28;20033;-73
2022/05/30 07:19:36;;;;;;;6.82;1.80;;;41.40;44.80;;;;;;5073801;28;20032;-73
2022/05/30 07:22:02;;;;;;;7.40;1.75;;;40.30;45.50;;;;;;5073890;28;20136;-73
2022/05/30 07:24:29;;;;;;;8.18;1.60;;;39.40;45.60;;;;;;5056065;28;20027;-72
2022/05/30 07:26:55;;;;;;;4.32;1.40;;;38.40;45.50;;;;;;5055752;28;20024;-72
2022/05/30 07:29:22;;;;;;;8.50;1.75;;;37.40;47.50;;;;;;5073945;28;20103;-73
2022/05/30 07:31:48;;;;;;;9.63;1.80;;;36.90;48.10;;;;;;5073754;28;20021;-73
2022/05/30 07:34:14;;;;;;;9.23;1.80;;;36.60;50.60;;;;;;5074414;28;20089;-73
2022/05/30 07:36:41;;;;;;;9.18;2.15;;;35.80;53.50;;;;;;5073864;28;20075;-73
2022/05/30 07:39:07;;;;;;;6.88;1.63;;;35.40;53.00;;;;;;5074413;28;20047;-74
2022/05/30 07:41:49;;;;;;;7.55;1.52;;;35.10;54.00;;;;;;5055437;28;20056;-72
2022/05/30 07:44:15;;;;;;;6.85;1.30;;;34.90;51.50;;;;;;5073462;28;20085;-72
2022/05/30 07:46:45;;;;;;;8.07;1.77;;;34.80;50.30;;;;;;5073679;28;20063;-73
2022/05/30 07:49:12;;;;;;;7.45;1.50;;;34.40;52.10;;;;;;5073598;28;20021;-72
2022/05/30 07:51:39;;;;;;;12.00;2.30;;;34.40;52.50;;;;;;5073141;28;20373;-73
2022/05/30 07:54:05;;;;;;;12.77;1.55;;;34.60;52.00;;;;;;5054601;28;20033;-72
2022/05/30 07:56:32;;;;;;;6.40;1.83;;;34.80;50.60;;;;;;5072895;28;20017;-72
2022/05/30 07:58:58;;;;;;;9.38;1.67;;;34.80;52.60;;;;;;5054897;28;20081;-72
2022/05/30 08:01:24;;;;;;;10.60;2.10;;;34.70;52.40;;;;;;5072316;28;20181;-73
2022/05/30 08:03:51;;;;;;;6.40;1.58;;;34.40;54.30;;;;;;5072257;28;20033;-73
2022/05/30 08:06:20;;;;;;;11.15;1.63;;;34.10;52.50;;;;;;5072137;28;20499;-72
2022/05/30 08:08:47;;;;;;;6.10;1.52;;;34.10;52.90;;;;;;5072508;28;20032;-73
2022/05/30 08:11:15;;;;;;;;;;;34.30;51.40;;;;;;5073092;28;20024;-73
2022/05/30 08:13:42;;;;;;;7.38;1.77;;;34.20;53.70;;;;;;5072000;28;19916;-73
2022/05/30 08:16:08;;;;;;;7.35;2.17;;;34.50;53.90;;;;;;5072420;28;20059;-73
2022/05/30 08:18:35;;;;;;;8.68;2.10;;;34.60;52.80;;;;;;5072615;28;20349;-73
2022/05/30 08:21:02;;;;;;;5.60;1.42;;;34.80;52.60;;;;;;5072618;28;20025;-74
2022/05/30 08:23:29;;;;;;;8.48;1.65;;;34.70;52.90;;;;;;5073110;28;20032;-72
2022/05/30 08:25:56;;;;;;;8.80;2.13;;;34.80;54.40;;;;;;5073012;28;20016;-73
2022/05/30 08:28:23;;;;;;;13.02;1.80;;;34.80;55.00;;;;;;5072799;28;20016;-72
2022/05/30 08:30:50;;;;;;;5.18;1.55;;;34.20;55.70;;;;;;5072776;28;20033;-73
2022/05/30 08:33:18;;;;;;;12.15;2.10;;;34.40;54.20;;;;;;5072562;28;20031;-73
2022/05/30 08:35:47;;;;;;;9.05;1.52;;;34.40;54.60;;;;;;5072918;28;20097;-73
2022/05/30 08:38:13;;;;;;;8.20;1.50;;;34.20;54.40;;;;;;5072445;28;20033;-73
2022/05/30 08:43:37;;;;;;;12.77;2.50;;;33.80;55.10;;;;;;5072688;28;20541;-73
2022/05/30 08:46:33;;;;;;;12.45;1.50;;;33.90;55.10;;;;;;5072552;28;20036;-73
2022/05/30 08:49:46;;;;;;;7.88;1.75;;;34.10;54.70;;;;;;5072690;28;20107;-73
2022/05/30 08:52:31;;;;;;;10.20;2.00;;;33.80;53.60;;;;;;5071880;28;20465;-73
2022/05/30 08:55:32;;;;;;;11.63;2.13;;;33.60;53.90;;;;;;5072524;28;20035;-74
2022/05/30 08:58:07;;;;;;;10.07;1.85;;;33.70;52.90;;;;;;5072290;28;20040;-73
2022/05/30 09:00:44;;;;;;;6.80;1.50;;;34.00;52.40;;;;;;5071639;28;20449;-72
2022/05/30 09:03:21;;;;;;;12.73;1.80;;;33.80;51.10;;;;;;5071852;28;20489;-72
2022/05/30 09:06:01;;;;;;;9.82;1.80;;;33.50;53.00;;;;;;5072002;28;20024;-72
2022/05/30 09:08:39;;;;;;;12.40;1.80;;;33.40;54.20;;;;;;5053198;28;20338;-73
2022/05/30 09:11:30;;;;;;;9.32;1.65;;;33.30;55.00;;;;;;5071410;28;20020;-73
2022/05/30 09:14:00;;;;;;;9.60;1.80;;;33.40;54.90;;;;;;5070775;28;20036;-73
2022/05/30 09:16:29;;;;;;;7.53;1.80;;;33.40;54.50;;;;;;5071745;28;20393;-73
2022/05/30 09:18:57;;;;;;;7.00;1.50;;;33.20;53.10;;;;;;5071035;28;20029;-73
2022/05/30 09:21:28;;;;;;;7.93;1.80;;;33.10;54.00;;;;;;5071134;28;20028;-72
2022/05/30 09:23:54;;;;;;;7.35;1.42;;;33.20;53.90;;;;;;5070725;28;20025;-72
2022/05/30 09:26:27;;;;;;;8.85;1.83;;;33.20;53.00;;;;;;5070707;28;20194;-72
2022/05/30 09:28:55;;;;;;;7.55;2.38;;;33.20;54.00;;;;;;5071114;28;20464;-73
2022/05/30 09:31:21;;;;;;;9.50;1.90;;;33.20;56.00;;;;;;5071088;28;20017;-73
2022/05/30 09:33:59;;;;;;;7.57;1.95;;;33.00;56.00;;;;;;5071187;28;20473;-73
2022/05/30 09:36:28;;;;;;;7.82;1.50;;;32.50;56.40;;;;;;5071197;28;20016;-73
2022/05/30 09:39:02;;;;;;;7.82;1.60;;;32.20;56.10;;;;;;5070967;28;20034;-74
2022/05/30 09:41:40;;;;;;;5.57;1.30;;;32.30;57.20;;;;;;5071128;28;20031;-73
2022/05/30 09:44:12;;;;;;;26.30;1.55;;;32.10;55.00;;;;;;5073204;28;20025;-73
2022/05/30 09:46:51;;;;;;;5.38;1.50;;;32.20;55.80;;;;;;5075046;28;20029;-74
2022/05/30 09:49:36;;;;;;;9.10;1.60;;;32.30;54.20;;;;;;5074961;28;20088;-72
2022/05/30 09:52:23;;;;;;;9.80;1.63;;;31.90;55.60;;;;;;5074907;28;20028;-73
2022/05/30 09:54:49;;;;;;;4.68;1.30;;;31.90;56.10;;;;;;5074323;28;20036;-72
2022/05/30 09:57:43;;;;;;;4.90;1.33;;;31.90;56.50;;;;;;5074772;28;20024;-72
2022/05/30 10:00:49;;;;;;;6.40;1.23;;;31.90;54.60;;;;;;5074429;28;20122;-73
2022/05/30 10:03:46;;;;;;;7.80;1.60;;;31.50;55.60;;;;;;5034553;28;20182;-73
2022/05/30 10:06:16;;;;;;;12.52;1.63;;;31.50;56.50;;;;;;5034338;28;20091;-73
2022/05/30 10:08:43;;;;;;;8.43;1.80;;;31.20;56.50;;;;;;5034488;28;20049;-73
2022/05/30 10:11:24;;;;;;;6.65;1.35;;;31.10;57.70;;;;;;5034722;28;20044;-72
2022/05/30 10:13:51;;;;;;;8.23;1.45;;;31.20;57.40;;;;;;5035267;28;20064;-73
2022/05/30 10:16:35;;;;;;;8.30;1.40;;;30.90;57.50;;;;;;5034619;28;20022;-75
2022/05/30 10:19:05;;;;;;;4.70;1.23;;;30.90;57.00;;;;;;5032592;28;20037;-73
2022/05/30 10:28:46;;;;;;;6.32;1.10;;;30.80;57.20;;;;;;5034363;28;20508;-73
2022/05/30 10:31:30;;;;;;;6.13;1.45;;;30.70;58.00;;;;;;4972805;28;20034;-73
2022/05/30 10:34:09;;;;;;;7.68;1.17;;;30.80;58.10;;;;;;5034322;28;20060;-75
2022/05/30 10:37:12;;;;;;;7.90;1.40;;;30.90;57.70;;;;;;5033818;28;20029;-73
2022/05/30 10:40:10;;;;;;;4.40;1.15;;;30.90;57.40;;;;;;5033095;28;20550;-73
2022/05/30 10:43:07;;;;;;;6.15;1.38;;;30.70;55.90;;;;;;5034023;28;20086;-73
2022/05/30 10:45:40;;;;;;;6.65;1.23;;;30.80;54.60;;;;;;5034355;28;20055;-73
2022/05/30 10:48:18;;;;;;;6.18;1.00;;;30.80;55.40;;;;;;5034431;28;20028;-74
2022/05/30 10:50:54;;;;;;;5.88;1.33;;;31.00;55.10;;;;;;5034230;28;20021;-72
2022/05/30 10:53:23;;;;;;;;;;;31.10;55.60;;;;;;5034555;28;20038;-74
2022/05/30 10:55:52;;;;;;;5.10;1.10;;;31.20;55.90;;;;;;5033372;28;19912;-73
2022/05/30 10:58:32;;;;;;;4.55;1.00;;;31.40;53.30;;;;;;5034496;28;20061;-73
2022/05/30 11:01:15;;;;;;;6.25;1.05;;;31.40;54.60;;;;;;5042955;28;20049;-74
2022/05/30 11:03:53;;;;;;;5.03;1.17;;;31.60;53.40;;;;;;5073319;28;20028;-72
2022/05/30 11:06:33;;;;;;;4.55;1.10;;;31.80;53.40;;;;;;5074639;28;20132;-74
2022/05/30 11:09:43;;;;;;;6.57;1.67;;;32.20;52.60;;;;;;5074633;28;20031;-73
2022/05/30 11:12:32;;;;;;;6.72;1.23;;;31.60;52.20;;;;;;5073708;28;20098;-74
2022/05/30 11:15:11;;;;;;;5.90;1.40;;;31.90;53.40;;;;;;5056131;28;20037;-73
2022/05/30 11:17:46;;;;;;;5.43;1.00;;;32.20;52.00;;;;;;5074685;28;20021;-74
2022/05/30 11:20:21;;;;;;;8.30;1.23;;;32.20;50.90;;;;;;5074803;28;20020;-72
2022/05/30 11:22:50;;;;;;;4.53;1.00;;;32.30;51.50;;;;;;5074652;28;20032;-72
2022/05/30 11:25:41;;;;;;;13.68;2.80;;;32.50;50.70;;;;;;5074017;28;20028;-72
2022/05/30 11:28:39;;;;;;;10.60;2.60;;;32.70;51.30;;;;;;5054742;28;20036;-74
2022/05/30 11:31:29;;;;;;;15.07;2.60;;;32.80;51.60;;;;;;5074376;28;20460;-74
2022/05/30 11:34:13;;;;;;;7.38;1.50;;;32.70;50.40;;;;;;5073421;28;20118;-73
2022/05/30 11:37:05;;;;;;;3.78;1.08;;;32.70;49.20;;;;;;5074316;28;20036;-73
2022/05/30 11:39:45;;;;;;;5.38;1.20;;;32.60;50.30;;;;;;5054723;28;20486;-72
2022/05/30 11:42:33;;;;;;;3.67;1.05;;;32.50;49.40;;;;;;5074419;28;20096;-73
2022/05/30 11:45:13;;;;;;;6.97;1.42;;;32.70;48.90;;;;;;5074160;28;20035;-73
2022/05/30 11:48:00;;;;;;;5.00;1.02;;;32.40;49.20;;;;;;5073337;28;20032;-72
2022/05/30 11:50:33;;;;;;;8.15;1.40;;;31.90;48.40;;;;;;5073674;28;20099;-72
2022/05/30 11:53:34;;;;;;;6.55;1.55;;;32.20;50.10;;;;;;5073492;28;20082;-73
2022/05/30 11:56:26;;;;;;;6.43;1.10;;;32.50;49.50;;;;;;5073365;28;20596;-73
2022/05/30 11:59:26;;;;;;;5.13;1.40;;;32.30;47.70;;;;;;5073084;28;20393;-72
2022/05/30 12:01:55;;;;;;;5.30;1.23;;;32.10;49.70;;;;;;5072616;28;20154;-72
2022/05/30 12:05:06;;;;;;;7.90;1.30;;;32.10;47.30;;;;;;5072907;28;20066;-73
2022/05/30 12:08:08;;;;;;;9.20;1.27;;;32.20;48.60;;;;;;5054394;28;20499;-72
2022/05/30 12:11:00;;;;;;;8.23;1.30;;;32.30;46.40;;;;;;5073703;28;20028;-72
2022/05/30 12:13:27;;;;;;;11.68;1.40;;;32.50;47.30;;;;;;5073744;28;20035;-72
2022/05/30 12:16:08;;;;;;;8.05;1.30;;;32.50;46.40;;;;;;5073228;28;20091;-73
2022/05/30 12:24:40;;;;;;;6.28;1.08;;;32.40;46.70;;;;;;5073656;28;20509;-72
2022/05/30 12:27:07;;;;;;;4.65;1.30;;;32.40;45.60;;;;;;5073802;28;20035;-72
2022/05/30 12:29:39;;;;;;;5.10;1.38;;;32.20;45.30;;;;;;5073560;28;20464;-73
2022/05/30 12:32:29;;;;;;;6.68;1.30;;;32.00;45.40;;;;;;5073430;28;20125;-73
2022/05/30 12:35:02;;;;;;;5.25;1.05;;;32.10;46.50;;;;;;5073340;28;20044;-73
2022/05/30 12:37:51;;;;;;;9.30;1.30;;;31.90;45.10;;;;;;5073453;28;20035;-73
2022/05/30 12:40:26;;;;;;;8.30;1.20;;;32.00;46.50;;;;;;5073065;28;20021;-73
2022/05/30 12:43:08;;;;;;;5.65;1.25;;;32.20;45.10;;;;;;5073257;28;20096;-73
2022/05/30 12:45:40;;;;;;;13.43;1.83;;;32.30;44.70;;;;;;5073081;28;20047;-73
2022/05/30 12:48:46;;;;;;;7.97;1.48;;;32.30;44.40;;;;;;5073387;28;20552;-74
2022/05/30 12:51:31;;;;;;;8.20;1.65;;;32.30;44.50;;;;;;5058737;28;20040;-72
2022/05/30 12:53:57;;;;;;;8.57;1.60;;;32.20;44.70;;;;;;5072981;28;20036;-72
2022/05/30 12:56:43;;;;;;;9.52;1.55;;;32.30;43.60;;;;;;5054624;28;20021;-72
2022/05/30 12:59:32;;;;;;;13.48;2.10;;;32.40;43.80;;;;;;5073142;28;20028;-73
2022/05/30 13:01:59;;;;;;;9.18;1.65;;;32.40;44.00;;;;;;5072643;28;20132;-73
2022/05/30 13:04:41;;;;;;;17.35;2.22;;;32.50;44.60;;;;;;5072659;28;20071;-72
2022/05/30 13:07:07;;;;;;;9.88;2.10;;;32.60;43.60;;;;;;5072837;28;20322;-73
2022/05/30 13:09:40;;;;;;;12.48;2.35;;;32.70;43.90;;;;;;5072629;28;20096;-73
2022/05/30 13:12:17;;;;;;;12.85;1.77;;;32.50;43.50;;;;;;5072687;28;20028;-72
2022/05/30 13:15:10;;;;;;;7.60;1.80;;;32.50;44.50;;;;;;5072472;28;20062;-74
2022/05/30 13:17:36;;;;;;;5.90;1.30;;;32.60;45.10;;;;;;5072977;28;20025;-73
2022/05/30 13:20:10;;;;;;;9.32;1.70;;;32.50;44.70;;;;;;5073217;28;20364;-73
2022/05/30 13:23:02;;;;;;;10.27;1.75;;;32.50;44.30;;;;;;5073158;28;20381;-73
2022/05/30 13:25:36;;;;;;;9.85;1.80;;;32.40;44.50;;;;;;5067249;28;20037;-73
2022/05/30 13:28:04;;;;;;;13.80;2.13;;;32.50;45.00;;;;;;5073370;28;20028;-73
2022/05/30 13:30:30;;;;;;;7.78;1.70;;;32.50;44.40;;;;;;5073314;28;20032;-73
2022/05/30 13:32:56;;;;;;;;;;;32.50;45.30;;;;;;5073471;28;20031;-74
2022/05/30 13:35:29;;;;;;;10.50;2.08;;;32.40;46.40;;;;;;5072740;28;19908;-71
2022/05/30 13:38:00;;;;;;;11.90;1.95;;;32.30;45.90;;;;;;5072947;28;20519;-74